Time;durP1;ratioP1;P1;durP2;ratioP2;P2;SDS_P1;SDS_P2;PMS_P1;PMS_P2;Temp;Humidity;BMP_temperature;BMP_pressure;BME280_temperature;BME280_humidity;BME280_pressure;Samples;Min_cycle;Max_cycle;Signal;HPM_P1;HPM_P2
2021/12/18 00:00:42;;;;;;;22.70;14.70;;;6.70;99.90;;;6.22;100.00;102721.53;4104909;28;20038;-67
2021/12/18 00:02:43;;;;;;;21.90;16.33;;;6.70;99.90;;;6.19;100.00;102716.44;4105186;28;20497;-67
2021/12/18 00:04:44;;;;;;;21.75;15.80;;;6.70;99.90;;;6.13;100.00;102716.75;4119615;28;20063;-67
2021/12/18 00:06:45;;;;;;;23.17;15.93;;;6.70;99.90;;;6.14;100.00;102723.69;4092399;29;20039;-67
2021/12/18 00:08:47;;;;;;;23.00;16.10;;;6.70;99.90;;;5.97;100.00;102721.09;4105280;28;20030;-67
2021/12/18 00:10:48;;;;;;;23.75;15.75;;;6.60;99.90;;;6.03;100.00;102718.19;4119716;28;20090;-67
2021/12/18 00:12:52;;;;;;;26.45;15.68;;;6.70;99.90;;;6.01;100.00;102723.47;4105037;28;20101;-67
2021/12/18 00:14:53;;;;;;;21.88;14.82;;;6.60;99.90;;;5.93;100.00;102711.69;4119623;28;20514;-67
2021/12/18 00:16:55;;;;;;;24.05;16.30;;;6.50;99.90;;;5.90;100.00;102719.72;4104955;28;20031;-67
2021/12/18 00:18:58;;;;;;;22.48;14.95;;;6.50;99.90;;;5.96;100.00;102715.00;4104963;29;20039;-67
2021/12/18 00:20:59;;;;;;;27.08;15.82;;;6.50;99.90;;;6.03;100.00;102718.19;4104962;28;20027;-67
2021/12/18 00:23:00;;;;;;;22.58;15.48;;;6.60;99.90;;;5.99;100.00;102724.47;4091766;28;20042;-67
2021/12/18 00:25:01;;;;;;;24.05;15.68;;;6.50;99.90;;;6.04;100.00;102722.47;4104795;28;20048;-67
2021/12/18 00:27:02;;;;;;;22.65;15.98;;;6.50;99.90;;;6.00;100.00;102718.34;4104859;28;20059;-67
2021/12/18 00:29:03;;;;;;;22.17;15.45;;;6.50;99.90;;;5.99;100.00;102708.78;4119346;28;20022;-67
2021/12/18 00:31:05;;;;;;;24.35;15.30;;;6.50;99.90;;;5.96;100.00;102712.41;4104757;28;20027;-67
2021/12/18 00:33:08;;;;;;;25.33;16.30;;;6.50;99.90;;;5.91;100.00;102716.19;4119448;28;20089;-67
2021/12/18 00:35:09;;;;;;;24.13;16.23;;;6.50;99.90;;;5.94;100.00;102716.03;4119559;28;20030;-67
2021/12/18 00:37:10;;;;;;;25.48;16.83;;;6.50;99.90;;;5.83;100.00;102707.81;4119518;28;20027;-67
2021/12/18 00:39:12;;;;;;;23.80;16.17;;;6.50;99.90;;;5.86;100.00;102710.31;4119490;28;20039;-67
2021/12/18 00:41:26;;;;;;;25.63;16.75;;;6.40;99.90;;;5.86;100.00;102686.72;4104677;28;20023;-67
2021/12/18 00:43:32;;;;;;;23.73;15.82;;;6.40;99.90;;;5.82;100.00;102706.13;4104631;28;20099;-67
2021/12/18 00:45:32;;;;;;;26.70;16.42;;;6.30;99.90;;;5.78;100.00;102715.91;4104069;28;20038;-67
2021/12/18 00:47:33;;;;;;;24.30;16.40;;;6.30;99.90;;;5.85;100.00;102714.72;4104620;28;20031;-67
2021/12/18 00:49:34;;;;;;;24.65;16.15;;;6.40;99.90;;;5.80;100.00;102695.72;4104544;28;20062;-67
2021/12/18 00:51:35;;;;;;;25.02;16.25;;;6.40;99.90;;;5.70;100.00;102691.03;4119286;28;20035;-67
2021/12/18 00:53:36;;;;;;;21.75;15.82;;;6.40;99.90;;;5.73;100.00;102703.97;4104324;28;20019;-67
2021/12/18 00:55:38;;;;;;;25.30;17.25;;;6.30;99.90;;;5.69;100.00;102698.03;4119296;28;20058;-67
2021/12/18 00:57:39;;;;;;;25.30;16.95;;;6.30;99.90;;;5.78;100.00;102697.59;4119157;28;20027;-67
2021/12/18 00:59:40;;;;;;;24.25;16.90;;;6.30;99.90;;;5.71;100.00;102696.19;4119041;28;20395;-67
2021/12/18 01:01:40;;;;;;;25.65;18.10;;;6.30;99.90;;;5.64;100.00;102705.28;4104229;28;20035;-67
2021/12/18 01:03:43;;;;;;;27.52;17.23;;;6.30;99.90;;;5.70;100.00;102701.50;4104393;28;20031;-67
2021/12/18 01:05:46;;;;;;;28.13;18.73;;;6.30;99.90;;;5.76;100.00;102711.69;4118772;28;20046;-67
2021/12/18 01:07:47;;;;;;;26.42;18.02;;;6.20;99.90;;;5.71;100.00;102711.03;4134996;28;20033;-67
2021/12/18 01:10:25;;;;;;;25.10;18.45;;;6.20;99.90;;;5.72;100.00;102702.28;4104115;28;20114;-67
2021/12/18 01:12:11;;;;;;;29.42;18.55;;;6.20;99.90;;;5.65;100.00;102704.34;4105857;28;20029;-67
2021/12/18 01:16:40;;;;;;;25.85;17.48;;;6.20;99.90;;;5.61;100.00;102702.81;4117822;28;20119;-67
2021/12/18 01:23:22;;;;;;;23.17;16.58;;;6.20;99.90;;;5.50;100.00;102698.09;4116505;28;20090;-67
2021/12/18 01:25:23;;;;;;;25.52;17.67;;;6.10;99.90;;;5.57;100.00;102711.75;4104003;28;20038;-67
2021/12/18 01:27:24;;;;;;;28.10;17.45;;;6.10;99.90;;;5.50;100.00;102697.25;4102695;28;20023;-67
2021/12/18 01:29:25;;;;;;;27.85;18.38;;;5.80;99.90;;;5.58;100.00;102711.66;4102574;29;20070;-67
2021/12/18 01:31:26;;;;;;;27.90;17.77;;;6.20;99.90;;;5.57;100.00;102715.22;4118776;28;20402;-67
2021/12/18 01:33:26;;;;;;;27.80;16.48;;;6.10;99.90;;;5.61;100.00;102721.16;4118631;28;20027;-67
2021/12/18 01:35:28;;;;;;;25.70;16.70;;;6.10;99.90;;;5.63;100.00;102716.69;4103091;28;20035;-67
2021/12/18 01:37:29;;;;;;;27.30;16.70;;;6.10;99.90;;;5.63;100.00;102721.06;4103776;28;20399;-67
2021/12/18 01:39:30;;;;;;;28.17;17.08;;;6.10;99.90;;;5.48;100.00;102709.56;4118737;28;20034;-67
2021/12/18 01:41:52;;;;;;;27.67;17.23;;;6.10;99.90;;;5.49;100.00;102709.50;4118652;28;20031;-67
2021/12/18 01:52:56;;;;;;;28.20;16.27;;;6.10;99.90;;;5.49;100.00;102698.19;4116653;28;20149;-67
2021/12/18 01:54:57;;;;;;;25.55;17.13;;;6.00;99.90;;;5.47;100.00;102706.09;4103781;28;20036;-67
2021/12/18 01:56:59;;;;;;;26.80;15.98;;;6.00;99.90;;;5.41;100.00;102698.56;4118435;28;20033;-67
2021/12/18 01:59:00;;;;;;;27.30;17.90;;;6.00;99.90;;;5.39;100.00;102704.78;4103543;28;20027;-67
2021/12/18 02:01:03;;;;;;;26.95;16.80;;;6.00;99.90;;;5.34;100.00;102705.03;4103718;28;20058;-67
2021/12/18 02:03:05;;;;;;;26.35;17.33;;;5.90;99.90;;;5.33;100.00;102705.94;4103834;28;20046;-67
2021/12/18 02:05:07;;;;;;;28.20;17.20;;;5.90;99.90;;;5.25;100.00;102697.63;4103286;28;20044;-67
2021/12/18 02:07:08;;;;;;;25.92;17.58;;;5.90;99.90;;;5.26;100.00;102708.91;4103820;28;20472;-67
2021/12/18 02:09:09;;;;;;;30.52;17.75;;;5.90;99.90;;;5.12;100.00;102698.28;4103651;29;20494;-67
2021/12/18 02:13:39;;;;;;;31.73;19.02;;;5.80;99.90;;;5.26;100.00;102707.16;4118394;28;20039;-67
2021/12/18 02:22:35;;;;;;;29.50;16.85;;;5.80;99.90;;;5.14;100.00;102697.28;4116571;28;20126;-67
2021/12/18 02:24:36;;;;;;;31.02;20.00;;;5.70;99.90;;;5.08;100.00;102694.94;4118352;28;20506;-67
2021/12/18 02:26:37;;;;;;;31.77;18.08;;;5.80;99.90;;;5.09;100.00;102690.56;4118399;28;20481;-67
2021/12/18 02:28:42;;;;;;;28.98;18.10;;;5.70;99.90;;;5.05;100.00;102704.72;4118216;28;20063;-67
2021/12/18 02:30:45;;;;;;;33.63;19.67;;;5.70;99.90;;;5.06;100.00;102701.19;4103387;28;20019;-67
2021/12/18 02:32:45;;;;;;;30.10;18.40;;;5.60;99.90;;;5.08;100.00;102700.19;4118325;28;20505;-67
2021/12/18 02:34:53;;;;;;;29.85;18.48;;;5.60;99.90;;;5.01;100.00;102696.19;4103485;28;20028;-66
2021/12/18 02:37:00;;;;;;;25.63;16.95;;;5.70;99.90;;;5.02;100.00;102703.09;4117608;28;20522;-68
2021/12/18 02:39:39;;;;;;;26.27;17.30;;;5.60;99.90;;;4.92;100.00;102688.75;4117502;28;20090;-67
2021/12/18 02:41:45;;;;;;;29.25;18.38;;;5.60;99.90;;;4.95;100.00;102701.69;4102124;28;20034;-66
2021/12/18 02:43:45;;;;;;;29.65;18.52;;;5.60;99.90;;;5.00;100.00;102695.31;4101544;28;20023;-67
2021/12/18 02:45:46;;;;;;;26.83;17.08;;;5.60;99.90;;;5.03;100.00;102689.09;4091683;29;20047;-67
2021/12/18 02:47:48;;;;;;;26.02;17.50;;;5.60;99.90;;;4.95;100.00;102693.84;4105891;29;20147;-67
2021/12/18 02:49:52;;;;;;;25.75;17.42;;;5.60;99.90;;;5.00;100.00;102695.31;4121151;28;20029;-67
2021/12/18 02:51:52;;;;;;;31.23;18.25;;;5.50;99.90;;;4.93;100.00;102693.06;4120903;28;20388;-67
2021/12/18 02:53:54;;;;;;;31.30;19.85;;;5.50;99.90;;;5.02;100.00;102693.47;4106237;28;20034;-67
2021/12/18 02:56:05;;;;;;;24.45;17.60;;;5.50;99.90;;;5.03;100.00;102689.94;4120859;28;20117;-67
2021/12/18 02:58:06;;;;;;;28.20;16.40;;;5.50;99.90;;;5.05;100.00;102681.19;4133581;28;20106;-67
2021/12/18 03:00:08;;;;;;;28.85;18.20;;;5.50;99.90;;;5.11;100.00;102694.81;4105838;28;20039;-66
2021/12/18 03:02:11;;;;;;;27.02;17.25;;;5.50;99.90;;;5.10;100.00;102697.50;4106044;28;20063;-67
2021/12/18 03:04:25;;;;;;;27.35;17.65;;;5.50;99.90;;;5.13;100.00;102700.81;4105879;29;20028;-67
2021/12/18 03:08:49;;;;;;;24.73;16.83;;;5.50;99.90;;;5.31;100.00;102694.72;4106086;29;20118;-67
2021/12/18 03:24:56;;;;;;;24.65;16.95;;;5.50;99.90;;;4.97;100.00;102684.16;4093335;29;20491;-67
2021/12/18 03:26:57;;;;;;;26.88;16.85;;;5.40;99.90;;;4.98;100.00;102678.00;4118723;28;20034;-67
2021/12/18 03:28:58;;;;;;;29.70;19.00;;;5.40;99.90;;;4.98;100.00;102686.72;4120324;28;20458;-67
2021/12/18 03:30:59;;;;;;;26.20;18.08;;;5.40;99.90;;;4.76;100.00;102677.31;4105523;28;20034;-67
2021/12/18 03:33:01;;;;;;;24.25;17.88;;;5.40;99.90;;;4.87;100.00;102682.88;4105712;28;20042;-67
2021/12/18 03:35:04;;;;;;;29.73;18.52;;;5.40;99.90;;;4.89;100.00;102676.69;4120446;28;20489;-66
2021/12/18 03:37:05;;;;;;;29.52;17.55;;;5.30;99.90;;;4.88;100.00;102680.22;4105565;28;20407;-67
2021/12/18 03:39:06;;;;;;;27.77;17.88;;;5.40;99.90;;;4.94;100.00;102676.44;4105552;28;20395;-67
2021/12/18 03:41:07;;;;;;;24.85;18.20;;;5.40;99.90;;;4.90;100.00;102673.13;4120389;28;20046;-67
2021/12/18 03:43:08;;;;;;;30.10;18.75;;;5.40;99.90;;;4.74;100.00;102671.31;4120429;28;20065;-67
2021/12/18 03:45:12;;;;;;;27.25;16.60;;;5.30;99.90;;;4.75;100.00;102684.31;4105195;28;20055;-67
2021/12/18 03:47:13;;;;;;;31.42;17.92;;;5.40;99.90;;;4.68;100.00;102682.91;4105321;28;20062;-66
2021/12/18 03:49:14;;;;;;;34.38;17.75;;;5.30;99.90;;;4.69;100.00;102676.75;4120355;28;20031;-67
2021/12/18 03:51:15;;;;;;;25.17;17.50;;;5.30;99.90;;;4.73;100.00;102685.31;4120281;28;20029;-67
2021/12/18 03:53:16;;;;;;;28.65;18.52;;;5.20;99.90;;;4.80;100.00;102681.50;4105397;28;20058;-67
2021/12/18 03:55:18;;;;;;;25.15;17.35;;;5.20;99.90;;;4.86;100.00;102674.22;4120121;28;20486;-66
2021/12/18 03:57:19;;;;;;;28.65;18.05;;;5.20;99.90;;;4.96;100.00;102682.44;4120188;28;20035;-67
2021/12/18 03:59:20;;;;;;;28.02;17.42;;;5.30;99.90;;;4.74;100.00;102676.56;4104167;28;20038;-67
2021/12/18 04:01:21;;;;;;;26.90;17.38;;;5.30;99.90;;;4.62;100.00;102677.13;4105242;28;20035;-67
2021/12/18 04:03:22;;;;;;;27.05;16.63;;;5.30;99.90;;;4.61;100.00;102680.63;4119897;28;20430;-67
2021/12/18 04:05:23;;;;;;;27.63;17.88;;;5.20;99.90;;;4.65;100.00;102679.59;4104898;28;20130;-67
2021/12/18 04:07:23;;;;;;;26.17;17.38;;;5.20;99.90;;;4.81;100.00;102688.41;4136089;28;20027;-67
2021/12/18 04:09:24;;;;;;;30.55;16.95;;;5.20;99.90;;;4.79;100.00;102685.00;4105139;28;20024;-66
2021/12/18 04:11:25;;;;;;;27.85;17.65;;;5.20;99.90;;;4.79;100.00;102685.00;4105097;28;20515;-67
2021/12/18 04:13:26;;;;;;;27.00;17.65;;;5.20;99.90;;;4.79;100.00;102687.63;4105088;29;20082;-67
2021/12/18 04:15:27;;;;;;;26.60;17.83;;;5.10;99.90;;;4.79;100.00;102696.31;4104767;28;20027;-66
2021/12/18 04:17:28;;;;;;;23.38;17.10;;;5.20;99.90;;;4.56;100.00;102687.84;4104942;29;20075;-67
2021/12/18 04:19:29;;;;;;;27.33;17.40;;;5.10;99.90;;;4.66;100.00;102689.13;4104753;29;20031;-67
2021/12/18 04:21:32;;;;;;;26.40;17.33;;;5.00;99.90;;;4.76;100.00;102682.53;4119658;28;20035;-67
2021/12/18 04:23:33;;;;;;;26.83;17.35;;;5.10;99.90;;;4.70;100.00;102690.66;4103633;29;20034;-66
2021/12/18 04:25:34;;;;;;;28.02;17.08;;;5.10;99.90;;;4.73;100.00;102685.31;4119506;28;20483;-67
2021/12/18 04:27:35;;;;;;;25.13;16.60;;;5.10;99.90;;;4.73;100.00;102682.69;4119491;28;20030;-67
2021/12/18 04:29:35;;;;;;;27.70;18.10;;;5.10;99.90;;;4.75;100.00;102689.53;4119366;28;20426;-66
2021/12/18 04:31:38;;;;;;;29.23;17.83;;;5.00;99.90;;;4.58;100.00;102692.09;4104726;28;20027;-66
2021/12/18 04:33:39;;;;;;;23.85;16.35;;;5.10;99.90;;;4.61;100.00;102699.78;4119425;28;20033;-66
2021/12/18 04:35:40;;;;;;;25.90;16.38;;;5.00;99.90;;;4.68;100.00;102687.28;4119321;28;20027;-67
2021/12/18 04:37:41;;;;;;;27.08;17.42;;;5.10;99.90;;;4.67;100.00;102691.66;4119526;28;20035;-66
2021/12/18 04:39:42;;;;;;;24.77;16.55;;;5.10;99.90;;;4.62;100.00;102693.66;4104660;28;20019;-67
2021/12/18 04:41:50;;;;;;;25.85;16.60;;;5.10;99.90;;;4.62;100.00;102688.44;4119393;28;20034;-67
2021/12/18 04:43:52;;;;;;;26.95;17.58;;;5.10;99.90;;;4.59;100.00;102699.03;4102894;28;20414;-68
2021/12/18 04:45:52;;;;;;;27.00;17.50;;;5.10;99.90;;;4.61;100.00;102696.31;4103312;29;20142;-67
2021/12/18 04:47:55;;;;;;;23.90;16.20;;;3.90;99.90;;;4.58;100.00;102680.78;4135157;28;20022;-67
2021/12/18 04:49:56;;;;;;;25.58;17.35;;;5.00;99.90;;;4.54;100.00;102679.25;4119124;28;20035;-67
2021/12/18 04:51:57;;;;;;;24.60;16.13;;;5.00;99.90;;;4.52;100.00;102681.06;4104246;29;20115;-67
2021/12/18 04:53:58;;;;;;;25.30;17.05;;;5.00;99.90;;;4.44;100.00;102681.41;4104438;28;20031;-67
2021/12/18 04:55:59;;;;;;;28.42;16.88;;;5.00;99.90;;;4.54;100.00;102677.44;4104315;29;20031;-67
2021/12/18 04:58:00;;;;;;;26.17;16.85;;;5.00;99.90;;;4.55;100.00;102688.75;4119121;28;20533;-67
2021/12/18 05:00:01;;;;;;;27.58;17.45;;;5.00;99.90;;;4.47;100.00;102679.53;4103903;28;20034;-67
2021/12/18 05:02:02;;;;;;;25.95;16.73;;;4.90;99.90;;;4.50;100.00;102682.91;4119175;28;20035;-67
2021/12/18 05:04:08;;;;;;;26.40;16.90;;;5.00;99.90;;;4.42;100.00;102678.03;4119127;28;20037;-66
2021/12/18 05:06:09;;;;;;;27.42;18.58;;;5.00;99.90;;;4.43;100.00;102684.94;4118296;28;20066;-66
2021/12/18 05:08:10;;;;;;;25.50;18.55;;;4.90;99.90;;;4.43;100.00;102680.56;4104026;28;20046;-66
2021/12/18 05:10:13;;;;;;;27.50;16.65;;;4.90;99.90;;;4.37;100.00;102683.44;4104151;28;20050;-66
2021/12/18 05:12:14;;;;;;;26.98;16.88;;;4.30;99.90;;;4.20;100.00;102679.91;4118882;28;20027;-66
2021/12/18 05:14:14;;;;;;;25.23;16.98;;;4.80;99.90;;;4.16;100.00;102679.19;4103779;28;20038;-66
2021/12/18 05:16:15;;;;;;;30.10;18.90;;;4.70;99.90;;;4.27;100.00;102678.72;4103971;28;20718;-66
2021/12/18 05:18:16;;;;;;;27.48;18.35;;;4.70;99.90;;;4.33;100.00;102687.09;4104099;28;20126;-67
2021/12/18 05:20:17;;;;;;;27.02;17.25;;;4.40;99.90;;;4.35;100.00;102695.75;4118850;28;20065;-66
2021/12/18 05:22:18;;;;;;;26.95;16.85;;;4.80;99.90;;;4.23;100.00;102692.81;4103963;28;20023;-66
2021/12/18 05:24:19;;;;;;;25.77;17.05;;;4.70;99.90;;;4.18;100.00;102693.00;4102787;29;20023;-66
2021/12/18 05:26:20;;;;;;;27.23;17.88;;;4.70;99.90;;;4.33;100.00;102697.56;4103936;29;20031;-67
2021/12/18 05:28:21;;;;;;;25.15;16.95;;;4.80;99.90;;;4.23;100.00;102701.50;4118579;28;20023;-66
2021/12/18 05:30:22;;;;;;;27.35;17.65;;;4.70;99.90;;;4.32;100.00;102710.72;4128806;28;20030;-66
2021/12/18 05:32:22;;;;;;;23.60;17.25;;;4.80;99.90;;;4.43;100.00;102718.91;4103752;28;20023;-67
2021/12/18 05:34:26;;;;;;;25.10;17.45;;;4.80;99.90;;;4.48;100.00;102709.94;4103886;28;20023;-67
2021/12/18 05:37:01;;;;;;;28.30;17.67;;;4.80;99.90;;;4.35;100.00;102716.66;4118416;28;20023;-66
2021/12/18 05:39:10;;;;;;;24.75;17.65;;;4.80;99.90;;;4.26;100.00;102706.59;4114691;28;20037;-67
2021/12/18 05:41:11;;;;;;;25.02;17.02;;;4.70;99.90;;;4.24;100.00;102712.81;4118152;28;20023;-66
2021/12/18 05:43:12;;;;;;;25.00;17.33;;;4.70;99.90;;;4.34;100.00;102722.78;4103886;28;20491;-66
2021/12/18 05:45:13;;;;;;;25.95;16.85;;;4.70;99.90;;;4.27;100.00;102725.75;4118226;28;20082;-67
2021/12/18 05:47:14;;;;;;;28.27;18.08;;;4.70;99.90;;;4.29;100.00;102722.16;4118561;28;20042;-66
2021/12/18 05:49:15;;;;;;;25.83;17.52;;;4.70;99.90;;;4.15;100.00;102713.22;4118554;28;20027;-66
2021/12/18 05:51:16;;;;;;;28.42;17.80;;;4.70;99.90;;;4.21;100.00;102724.22;4118480;28;20038;-67
2021/12/18 05:53:18;;;;;;;28.63;17.50;;;4.70;99.90;;;4.30;100.00;102726.44;4103863;28;20110;-66
2021/12/18 05:55:20;;;;;;;25.67;17.25;;;4.60;99.90;;;4.19;100.00;102720.84;4103721;29;20455;-66
2021/12/18 05:57:21;;;;;;;27.45;17.35;;;4.70;99.90;;;4.21;100.00;102716.38;4118308;28;20027;-66
2021/12/18 05:59:22;;;;;;;25.02;16.92;;;5.10;99.90;;;4.29;100.00;102724.75;4118209;28;20527;-66
2021/12/18 06:01:23;;;;;;;25.88;17.55;;;4.60;99.90;;;4.34;100.00;102728.00;4103407;28;20030;-67
2021/12/18 06:03:24;;;;;;;29.17;18.40;;;4.70;99.90;;;4.31;100.00;102730.75;4118494;28;20035;-67
2021/12/18 06:05:25;;;;;;;27.48;17.38;;;4.60;99.90;;;4.16;100.00;102733.16;4103256;29;20058;-67
2021/12/18 06:07:31;;;;;;;24.80;16.75;;;4.70;99.90;;;4.11;100.00;102735.16;4103612;28;20565;-67
2021/12/18 06:09:36;;;;;;;28.08;17.08;;;4.60;99.90;;;4.08;100.00;102723.06;4103448;29;20439;-66
2021/12/18 06:11:39;;;;;;;26.00;17.08;;;4.60;99.90;;;4.12;100.00;102729.84;4118352;28;20433;-67
2021/12/18 06:13:47;;;;;;;;;;;4.60;99.90;;;4.21;100.00;102728.63;4103952;29;20054;-66
2021/12/18 06:15:47;;;;;;;24.48;16.90;;;4.50;99.90;;;4.21;100.00;102736.47;4102386;29;19910;-67
2021/12/18 06:17:48;;;;;;;27.27;17.08;;;4.60;99.90;;;4.27;100.00;102755.28;4103389;29;20380;-67
2021/12/18 06:19:49;;;;;;;25.40;17.08;;;4.60;99.90;;;4.19;100.00;102751.31;4103524;28;20023;-67
2021/12/18 06:21:50;;;;;;;25.45;18.10;;;4.60;99.90;;;4.23;100.00;102742.44;4104536;28;20561;-67
2021/12/18 06:23:55;;;;;;;23.90;16.65;;;4.50;99.90;;;4.19;100.00;102740.88;4105346;29;20031;-67
2021/12/18 06:25:56;;;;;;;27.20;17.85;;;4.50;99.90;;;4.13;100.00;102747.22;4121059;28;20250;-67
2021/12/18 06:27:57;;;;;;;23.38;16.75;;;4.50;99.90;;;4.09;100.00;102750.03;4121305;28;20031;-67
2021/12/18 06:29:58;;;;;;;25.40;17.80;;;4.50;99.90;;;4.05;100.00;102748.47;4106213;28;20030;-67
2021/12/18 06:32:00;;;;;;;25.10;15.48;;;4.50;99.90;;;4.05;100.00;102748.47;4106400;28;20059;-67
2021/12/18 06:34:01;;;;;;;25.13;16.15;;;4.50;99.90;;;4.23;100.00;102758.13;4121002;28;20023;-67
2021/12/18 06:36:03;;;;;;;22.13;16.00;;;4.90;99.90;;;4.09;100.00;102757.88;4106345;28;20030;-66
2021/12/18 06:38:04;;;;;;;23.95;16.50;;;4.50;99.90;;;4.22;100.00;102753.81;4121015;28;20077;-67
2021/12/18 06:40:06;;;;;;;23.58;16.50;;;4.70;99.90;;;4.10;100.00;102763.03;4106243;29;20038;-67
2021/12/18 06:42:07;;;;;;;23.65;16.30;;;4.50;99.90;;;4.01;100.00;102758.19;4120906;28;20049;-67
2021/12/18 06:44:08;;;;;;;25.27;18.48;;;4.40;99.90;;;4.00;100.00;102761.72;4106074;28;20106;-66
2021/12/18 06:46:09;;;;;;;25.30;17.33;;;4.40;99.90;;;4.16;100.00;102760.16;4120961;28;20594;-67
2021/12/18 06:48:10;;;;;;;25.55;17.45;;;4.50;99.90;;;4.15;100.00;102768.88;4120974;28;20026;-66
2021/12/18 06:50:11;;;;;;;26.67;17.35;;;4.50;99.90;;;4.24;100.00;102763.28;4120863;28;20035;-67
2021/12/18 06:52:12;;;;;;;24.27;16.58;;;4.50;99.90;;;4.05;100.00;102762.38;4106259;28;20051;-66
2021/12/18 06:54:13;;;;;;;25.95;18.35;;;4.50;99.90;;;4.09;100.00;102758.69;4105949;29;20038;-67
2021/12/18 06:56:14;;;;;;;28.00;18.17;;;4.50;99.90;;;3.99;100.00;102769.59;4105958;29;20050;-67
2021/12/18 06:58:15;;;;;;;23.65;16.58;;;4.50;99.90;;;3.90;100.00;102765.63;4105948;28;20027;-67
2021/12/18 07:00:19;;;;;;;24.70;17.98;;;4.40;99.90;;;4.11;100.00;102762.13;4120572;28;20041;-67
2021/12/18 07:02:20;;;;;;;22.27;16.38;;;4.40;99.90;;;4.01;100.00;102771.25;4120765;28;20102;-66
2021/12/18 07:04:24;;;;;;;25.73;16.73;;;4.50;99.90;;;4.13;100.00;102773.34;4120612;28;20042;-67
2021/12/18 07:06:25;;;;;;;22.05;15.63;;;4.50;99.90;;;4.05;100.00;102772.81;4120083;28;20050;-67
2021/12/18 07:08:26;;;;;;;23.60;17.15;;;4.40;99.90;;;3.96;100.00;102775.81;4120853;28;20038;-67
2021/12/18 07:10:27;;;;;;;25.20;17.30;;;4.40;99.90;;;4.00;100.00;102772.16;4120672;28;20110;-67
2021/12/18 07:12:28;;;;;;;25.27;17.13;;;4.40;99.90;;;3.99;100.00;102773.06;4105745;28;20517;-67
2021/12/18 07:14:29;;;;;;;25.77;17.17;;;4.40;99.90;;;3.93;100.00;102773.34;4105435;29;20024;-67
2021/12/18 07:16:30;;;;;;;23.27;16.63;;;4.40;99.90;;;3.80;100.00;102770.38;4105832;29;20039;-67
2021/12/18 07:18:31;;;;;;;24.20;17.38;;;4.40;99.90;;;3.71;100.00;102772.50;4120613;28;20363;-66
2021/12/18 07:20:32;;;;;;;26.27;17.45;;;4.30;99.90;;;3.80;100.00;102772.13;4105716;28;20054;-67
2021/12/18 07:22:33;;;;;;;22.13;16.67;;;4.30;99.90;;;3.84;100.00;102776.31;4120342;28;20050;-67
2021/12/18 07:24:34;;;;;;;23.67;15.77;;;4.10;99.90;;;3.82;100.00;102773.75;4120384;28;20073;-67
2021/12/18 07:26:35;;;;;;;27.27;18.00;;;4.20;99.90;;;3.85;100.00;102775.41;4105675;28;20062;-67
2021/12/18 07:28:36;;;;;;;25.23;17.48;;;4.20;99.90;;;3.86;100.00;102779.72;4105463;28;20037;-66
2021/12/18 07:30:37;;;;;;;21.92;16.00;;;4.20;99.90;;;4.08;100.00;102784.91;4105412;29;20390;-67
2021/12/18 07:32:38;;;;;;;22.73;15.38;;;4.30;99.90;;;3.96;100.00;102786.25;4119562;28;20055;-67
2021/12/18 07:34:39;;;;;;;22.98;15.90;;;4.40;99.90;;;3.91;100.00;102783.00;4093927;29;20100;-67
2021/12/18 07:36:40;;;;;;;22.17;15.80;;;4.30;99.90;;;3.80;100.00;102785.19;4120318;28;20030;-67
2021/12/18 07:38:41;;;;;;;24.05;16.85;;;4.20;99.90;;;3.90;100.00;102781.28;4105354;28;20035;-67
2021/12/18 07:40:43;;;;;;;22.20;16.20;;;4.30;99.90;;;3.80;100.00;102782.56;4105418;28;21338;-67
2021/12/18 07:42:43;;;;;;;23.83;16.83;;;4.20;99.90;;;3.97;100.00;102790.56;4120172;28;20026;-67
2021/12/18 07:44:45;;;;;;;25.10;16.20;;;4.30;99.90;;;3.96;100.00;102788.88;4119825;28;20618;-67
2021/12/18 07:46:46;;;;;;;25.33;17.77;;;4.20;99.90;;;4.07;100.00;102784.03;4120023;28;20018;-67
2021/12/18 07:48:47;;;;;;;22.42;15.65;;;4.30;99.90;;;4.07;100.00;102791.00;4105397;28;20054;-67
2021/12/18 07:50:48;;;;;;;24.73;16.85;;;4.30;99.90;;;3.94;100.00;102797.69;4120045;28;20086;-67
2021/12/18 07:52:49;;;;;;;24.33;16.92;;;4.40;99.90;;;4.13;100.00;102798.59;4120033;28;20022;-67
2021/12/18 07:54:51;;;;;;;22.48;16.33;;;4.30;99.90;;;3.90;100.00;102797.81;4119897;28;20128;-67
2021/12/18 07:56:51;;;;;;;25.33;16.83;;;4.40;99.90;;;3.80;100.00;102809.53;4119725;28;20031;-67
2021/12/18 07:58:53;;;;;;;23.13;17.17;;;4.40;99.90;;;3.74;100.00;102807.16;4104843;28;20034;-67
2021/12/18 08:00:54;;;;;;;24.25;17.60;;;4.30;99.90;;;3.88;100.00;102804.84;4103725;28;20031;-67
2021/12/18 08:02:55;;;;;;;24.15;16.92;;;4.20;99.90;;;3.90;100.00;102797.81;4104820;29;20027;-67
2021/12/18 08:04:56;;;;;;;22.70;16.95;;;4.30;99.90;;;3.87;100.00;102799.69;4104537;28;20071;-67
2021/12/18 08:06:57;;;;;;;30.30;17.90;;;4.20;99.90;;;3.85;100.00;102809.34;4135977;28;20050;-67
2021/12/18 08:08:58;;;;;;;24.42;17.20;;;4.30;99.90;;;3.92;100.00;102810.78;4104991;28;20031;-67
2021/12/18 08:10:58;;;;;;;23.63;17.20;;;5.50;99.90;;;3.96;100.00;102803.69;4104902;29;20483;-67
2021/12/18 08:12:59;;;;;;;25.92;16.88;;;4.30;99.90;;;3.94;100.00;102808.13;4103484;28;20035;-67
2021/12/18 08:15:01;;;;;;;27.98;17.67;;;4.30;99.90;;;3.82;100.00;102819.91;4104146;28;20027;-67
2021/12/18 08:17:03;;;;;;;26.13;16.17;;;4.30;99.90;;;3.87;100.00;102823.19;4104987;28;20071;-67
2021/12/18 08:19:04;;;;;;;24.48;17.52;;;4.20;99.90;;;4.00;100.00;102813.94;4119602;28;20434;-67
2021/12/18 08:21:05;;;;;;;24.60;17.40;;;4.30;99.90;;;3.88;100.00;102825.72;4104597;28;20059;-67
2021/12/18 08:23:06;;;;;;;25.38;17.98;;;4.40;99.90;;;3.77;100.00;102824.44;4103647;29;20035;-67
2021/12/18 08:25:08;;;;;;;28.10;18.17;;;4.30;99.90;;;3.90;100.00;102828.28;4119395;28;20035;-67
2021/12/18 08:27:09;;;;;;;25.27;17.23;;;4.30;99.90;;;3.94;100.00;102829.00;4119547;28;20090;-67
2021/12/18 08:29:10;;;;;;;24.63;18.10;;;4.40;99.90;;;3.87;100.00;102833.63;4118988;28;20031;-67
2021/12/18 08:31:11;;;;;;;24.83;17.52;;;4.30;99.90;;;3.71;100.00;102829.91;4092575;28;20035;-67
2021/12/18 08:33:12;;;;;;;25.95;17.65;;;4.40;99.90;;;3.63;100.00;102835.47;4119358;28;20530;-67
2021/12/18 08:35:13;;;;;;;26.33;18.77;;;4.30;99.90;;;3.57;100.00;102829.63;4119462;28;20059;-68
2021/12/18 08:37:14;;;;;;;32.28;21.35;;;4.30;99.90;;;3.65;100.00;102843.22;4104342;28;20483;-67
2021/12/18 08:39:15;;;;;;;31.25;20.38;;;4.30;99.90;;;3.72;100.00;102835.09;4104386;28;20031;-67
2021/12/18 08:41:16;;;;;;;31.35;20.27;;;4.10;99.90;;;3.73;100.00;102834.16;4119534;28;20047;-67
2021/12/18 08:43:17;;;;;;;34.13;22.77;;;4.30;99.90;;;3.81;100.00;102844.31;4119661;28;20050;-67
2021/12/18 08:45:19;;;;;;;27.15;19.48;;;4.30;99.90;;;3.80;100.00;102838.25;4119265;28;20109;-67
2021/12/18 08:47:21;;;;;;;30.50;21.80;;;4.50;99.90;;;3.83;100.00;102837.25;4119979;28;20018;-66
2021/12/18 08:49:23;;;;;;;34.20;22.55;;;4.40;99.90;;;3.77;100.00;102842.72;4104051;28;20031;-67
2021/12/18 08:51:23;;;;;;;30.08;22.33;;;3.60;99.90;;;3.95;100.00;102842.00;4120220;28;20038;-65
2021/12/18 08:53:25;;;;;;;32.60;22.42;;;4.40;99.90;;;3.94;100.00;102847.28;4103510;29;20562;-67
2021/12/18 08:55:26;;;;;;;29.17;20.77;;;4.50;99.90;;;3.92;100.00;102829.91;4119870;28;20026;-67
2021/12/18 08:57:28;;;;;;;30.35;20.10;;;4.50;99.90;;;3.97;100.00;102842.81;4105152;29;20523;-67
2021/12/18 08:59:29;;;;;;;29.00;19.83;;;4.60;99.90;;;3.95;100.00;102846.34;4119404;28;20031;-67
2021/12/18 09:01:30;;;;;;;28.30;20.08;;;4.50;99.90;;;4.10;100.00;102836.13;4104827;28;20069;-67
2021/12/18 09:03:32;;;;;;;30.10;19.65;;;4.50;99.90;;;3.87;100.00;102844.94;4120131;28;20510;-67